Walworth, NY (14568)

2:01 PM EDT on July 04, 2015 (GMT -0400)
Walworth/Huddle | | Change Station
CLOSE
Current Station
Personal Weather Station
Location: Walworth, NY
Elevation: 459 ft
Nearby Weather Stations

Elev 459 ft 43.13 °N, 77.27 °W | Updated 28 minutes ago

Partly Cloudy
Partly Cloudy
83.5 °F
Feels Like 81 °F
N
0.0
Wind Variable Wind from North
Gusts 3.0 mph

Today
High -- | Low -- °F
--% Chance of Precip.
Yesterday
High -- | Low -- °F
Precip. -- in
5:34 AM 8:51 PM
Waning Gibbous, 91% visible
Pressure 29.94 in
Visibility 10.0 miles
Clouds Scattered Clouds 2900 ft
Mostly Cloudy 5000 ft
Mostly Cloudy 23000 ft
Heat Index 81 °F
Dew Point 45 °F
Humidity 26%
Rainfall 0.00 in
Snow Depth Not available.
UV 6 out of 12
Pollen 2.20 out of 12
Air Quality Not available.
Flu Activity Not available.
METAR KROC 041754Z 30007KT 270V340 10SM SCT029 BKN050 BKN230 25/17 A2993 RMK AO2 SLP137 T02500167 10250 20167 58000

More Conditions Fewer Conditions

Pressure 29.94 in
Visibility 10.0 miles
Clouds Scattered Clouds 2900 ft
Mostly Cloudy 5000 ft
Mostly Cloudy 23000 ft
Heat Index 81 °F
Dew Point 45 °F
Humidity 26%
Rainfall 0.00 in
Snow Depth Not available.
UV 6 out of 12
Pollen 2.20 out of 12
Air Quality Not available.
Flu Activity Not available.
METAR KROC 041754Z 30007KT 270V340 10SM SCT029 BKN050 BKN230 25/17 A2993 RMK AO2 SLP137 T02500167 10250 20167 58000

More Conditions Fewer Conditions

10-Day Weather Forecast

×

Almanac

Astronomy

Jul. 04, 2015 Rise Set
Actual Time
Civil Twilight
Nautical Twilight
Astronomical Twilight
Moon
Length of Visible Light
Length of Day
Tomorrow will be .
, % of the Moon is Illuminated

Today's Extremes

State Highs State Lows

Community

WunderPhotos

Upload Photos

1,835,016 photos uploaded!

WunderBlogs® & News

Nearby

Air Quality

  Air Quality AQ Index Pollutant
Not available.

Snow Depth

Station Depth Elevation

Earthquake Activity

City Distance Mag. Time & Date
Minimum magnitude displayed is 2.5.

Coastal Water Temperatures

Place Temperature

Stations

Nearby Weather Stations

Station Location Temp. Windchill Dew Point Humidity Wind Precip. Elev Updated Type